Portada
METAR-TAF:

METAR-TAF

Aeroports :

Ranchi, Índia

latitud: 23-18-51N, longitud: 85-19-18E, altitud: 646 m

Observació

L'informe es va fer fa 41 minuts, a les 10:00 UTC
Vent 5 kt del Est/Sud-Est
Temperatura 24°C
Humitat 61%
Pressió 1014 hPa
Visibilitat: 5000 m
Núvols disperses a una alçada de 2000 ft
Cel ennuvolat a una alçada de 10000 ft
calitja

METAR: VERC 061000Z 11005KT 5000 HZ SCT020 BKN100 24/16 Q1014 NOSIG

Hora: 16:11 (10:41 UTC)

Pronòstic

L'informe es va fer fa 2 hores i 41 minuts, a les 08:00 UTC
Pronòstic vàlid del 06 a les 09 UTC al 06 a les 18 UTC
Vent 4 kt del Nord-Est
Visibilitat: 5000 m
Núvols disperses a una alçada de 2000 ft
Núvols disperses a una alçada de 2500 ft
calitja
Evolucionant progressivament
l' 06 a les 13 UTC al 06 a les 15 UTC
Vent kt del Nord
Visibilitat: 3000 m
Núvols disperses a una alçada de 2000 ft
calitja

TAF: VERC 060800Z 0609/0618 05004KT 5000 HZ SCT020 SCT025 BECMG 0613/0615 00000KT 3000 HZ SCT020

Observacions i pronòstics meteorològics de més de 4000 aeroports (METAR i TAF).

Les estacions disponibles són els punts grocs i vermells al mapa.

Posi el ratolí al punt desitjat per veure el nom de l'estació.

Feu clic per veure les observacions i els pronòstics meteorològics.

Per canviar el mapa: feu clic els botons verds amb una creu de color negre per apropar; al botó verd amb un guió per allunyar la imatge; o en les fletxes verdes per a mapes adjacents.


METAR-TAF: